Time;durP1;ratioP1;P1;durP2;ratioP2;P2;SDS_P1;SDS_P2;PMS_P1;PMS_P2;Temp;Humidity;BMP_temperature;BMP_pressure;BME280_temperature;BME280_humidity;BME280_pressure;Samples;Min_cycle;Max_cycle;Signal;HPM_P1;HPM_P2
2023/05/13 00:01:42;;;;;;;2.72;2.53;;;22.60;80.80;;;;;;6257445;27;89055;-68
2023/05/13 00:04:46;;;;;;;2.95;2.65;;;22.60;80.80;;;;;;6270543;27;90022;-68
2023/05/13 00:07:48;;;;;;;3.08;2.83;;;22.60;80.80;;;;;;6281336;27;88586;-68
2023/05/13 00:10:50;;;;;;;3.38;3.05;;;22.60;80.80;;;;;;6278380;27;89064;-68
2023/05/13 00:13:52;;;;;;;3.05;2.75;;;22.60;80.80;;;;;;6288162;27;89127;-68
2023/05/13 00:16:54;;;;;;;3.20;2.90;;;22.60;80.80;;;;;;6258968;27;90070;-68
2023/05/13 00:19:57;;;;;;;3.53;3.08;;;22.60;80.80;;;;;;6271762;27;87983;-69
2023/05/13 00:23:02;;;;;;;3.20;2.90;;;22.60;80.70;;;;;;6284420;27;91060;-68
2023/05/13 00:26:04;;;;;;;3.97;3.58;;;22.50;80.60;;;;;;6260543;27;89172;-68
2023/05/13 00:29:08;;;;;;;3.78;3.38;;;22.50;80.70;;;;;;6281958;27;89075;-69
2023/05/13 00:32:10;;;;;;;4.22;3.80;;;22.50;80.70;;;;;;6278021;27;89143;-68
2023/05/13 00:35:14;;;;;;;4.38;3.80;;;22.50;80.70;;;;;;6272860;27;89394;-68
2023/05/13 00:38:16;;;;;;;5.88;4.13;;;22.50;81.60;;;;;;6257839;27;88291;-68
2023/05/13 00:41:20;;;;;;;4.47;4.05;;;22.50;80.70;;;;;;6280133;27;88828;-68
2023/05/13 00:44:22;;;;;;;4.25;3.85;;;22.50;80.70;;;;;;6292467;27;89755;-68
2023/05/13 00:47:24;;;;;;;4.72;3.95;;;22.50;80.70;;;;;;6275430;27;90083;-68
2023/05/13 00:50:28;;;;;;;4.82;4.35;;;22.50;80.60;;;;;;6281445;27;89105;-69
2023/05/13 00:53:32;;;;;;;4.70;4.30;;;22.50;80.60;;;;;;6295495;27;90358;-68
2023/05/13 00:56:34;;;;;;;4.40;4.00;;;22.50;80.60;;;;;;6293220;27;89065;-69
2023/05/13 00:59:36;;;;;;;4.35;3.95;;;22.50;80.70;;;;;;6282868;27;87980;-68
2023/05/13 01:02:45;;;;;;;4.63;4.22;;;22.50;80.60;;;;;;6283786;27;89159;-68
2023/05/13 01:06:02;;;;;;;5.30;4.80;;;22.50;80.70;;;;;;6280745;27;89256;-68
2023/05/13 01:09:10;;;;;;;5.45;4.90;;;22.50;80.70;;;;;;6280933;27;88348;-68
2023/05/13 01:12:19;;;;;;;5.03;4.53;;;22.50;80.70;;;;;;6270362;27;89114;-68
2023/05/13 01:15:26;;;;;;;5.30;4.80;;;22.50;80.80;;;;;;6281028;27;89054;-68
2023/05/13 01:18:33;;;;;;;5.28;4.78;;;22.40;80.70;;;;;;6288976;27;90059;-68
2023/05/13 01:21:39;;;;;;;5.25;4.75;;;22.40;80.70;;;;;;6293421;27;88981;-68
2023/05/13 01:24:41;;;;;;;5.35;4.85;;;22.50;80.80;;;;;;6295040;27;89365;-68
2023/05/13 01:27:43;;;;;;;6.10;5.50;;;22.50;80.80;;;;;;6274689;27;89615;-68
2023/05/13 01:30:46;;;;;;;5.78;5.10;;;22.40;80.70;;;;;;6288385;27;89028;-68
2023/05/13 01:33:49;;;;;;;6.30;5.70;;;22.40;80.60;;;;;;6267431;27;89157;-69
2023/05/13 01:36:53;;;;;;;6.20;5.60;;;22.40;80.60;;;;;;6280609;27;89038;-68
2023/05/13 01:39:56;;;;;;;6.22;5.63;;;22.40;80.60;;;;;;6271635;27;88370;-68
2023/05/13 01:42:57;;;;;;;6.60;5.90;;;22.40;80.70;;;;;;6275812;27;89120;-68
2023/05/13 01:46:01;;;;;;;6.65;5.97;;;22.40;80.70;;;;;;6284713;27;87970;-68
2023/05/13 01:49:03;;;;;;;7.32;6.13;;;22.30;80.60;;;;;;6283678;27;90000;-69
2023/05/13 01:52:07;;;;;;;6.65;5.95;;;22.40;80.80;;;;;;6293701;27;89157;-69
2023/05/13 01:55:10;;;;;;;6.68;5.97;;;22.40;80.80;;;;;;6281391;27;89137;-68
2023/05/13 01:58:11;;;;;;;6.45;5.85;;;22.40;80.80;;;;;;6278493;27;90109;-69
2023/05/13 02:01:13;;;;;;;6.13;5.53;;;22.40;80.70;;;;;;6279136;27;89144;-69
2023/05/13 02:04:15;;;;;;;6.30;5.70;;;22.40;80.80;;;;;;6289028;27;89100;-69
2023/05/13 02:07:19;;;;;;;6.55;5.95;;;22.30;80.70;;;;;;6277050;27;89404;-69
2023/05/13 02:10:21;;;;;;;6.70;6.10;;;22.40;80.70;;;;;;6280531;27;88411;-69
2023/05/13 02:13:23;;;;;;;7.13;6.43;;;22.40;80.80;;;;;;6265552;27;89035;-69
2023/05/13 02:16:25;;;;;;;7.18;6.47;;;22.30;80.60;;;;;;6259612;27;89095;-68
2023/05/13 02:19:27;;;;;;;6.93;6.22;;;22.30;80.60;;;;;;6267730;27;90016;-69
2023/05/13 02:22:30;;;;;;;7.13;6.43;;;22.30;80.70;;;;;;6267422;27;89062;-69
2023/05/13 02:25:32;;;;;;;7.25;6.55;;;22.30;80.60;;;;;;6289478;27;89122;-69
2023/05/13 02:28:34;;;;;;;6.88;6.20;;;22.30;80.60;;;;;;6271313;27;89349;-69
2023/05/13 02:31:36;;;;;;;7.63;6.78;;;22.30;80.60;;;;;;6269373;27;89068;-69
2023/05/13 02:34:38;;;;;;;7.03;6.32;;;22.30;80.70;;;;;;6295695;27;89474;-71
2023/05/13 02:37:42;;;;;;;6.60;6.00;;;22.30;80.60;;;;;;6275090;27;89134;-69
2023/05/13 02:40:44;;;;;;;6.93;6.22;;;22.40;80.70;;;;;;6290049;27;88633;-69
2023/05/13 02:43:46;;;;;;;8.18;7.13;;;22.30;80.70;;;;;;6290074;27;89128;-69
2023/05/13 02:46:48;;;;;;;7.53;6.72;;;22.40;80.70;;;;;;6283834;27;89123;-68
2023/05/13 02:49:50;;;;;;;6.85;6.15;;;22.30;80.60;;;;;;6271469;27;89043;-69
2023/05/13 02:52:53;;;;;;;6.78;6.07;;;22.30;80.60;;;;;;6262167;27;89089;-69
2023/05/13 02:55:55;;;;;;;6.47;5.88;;;22.30;80.60;;;;;;6273528;27;89096;-69
2023/05/13 02:58:57;;;;;;;6.93;6.32;;;22.30;80.60;;;;;;6295237;27;89190;-69
2023/05/13 03:01:59;;;;;;;6.70;6.00;;;22.30;80.60;;;;;;6275665;27;89156;-69
2023/05/13 03:05:01;;;;;;;6.25;5.65;;;22.30;80.60;;;;;;6283106;27;89093;-69
2023/05/13 03:08:05;;;;;;;7.07;6.38;;;22.30;80.60;;;;;;6267193;27;89271;-69
2023/05/13 03:11:07;;;;;;;7.20;6.50;;;22.30;80.60;;;;;;6290305;27;88684;-69
2023/05/13 03:14:08;;;;;;;7.25;6.55;;;22.30;80.60;;;;;;6285540;27;89054;-69
2023/05/13 03:17:11;;;;;;;6.40;5.80;;;22.30;80.60;;;;;;6270744;27;89071;-69
2023/05/13 03:20:13;;;;;;;6.78;6.18;;;22.30;80.60;;;;;;6273685;27;90363;-69
2023/05/13 03:23:16;;;;;;;6.57;5.97;;;22.30;80.60;;;;;;6271009;27;89021;-69
2023/05/13 03:26:18;;;;;;;6.40;5.80;;;22.30;80.60;;;;;;6273947;27;89079;-68
2023/05/13 03:29:20;;;;;;;6.30;5.70;;;22.20;80.60;;;;;;6279954;27;89034;-68
2023/05/13 03:32:24;;;;;;;6.30;5.70;;;22.20;80.60;;;;;;6265194;27;89502;-68
2023/05/13 03:35:26;;;;;;;8.43;6.40;;;22.20;80.60;;;;;;6282282;27;89018;-70
2023/05/13 03:38:30;;;;;;;6.85;6.15;;;22.30;80.50;;;;;;6259151;27;89125;-69
2023/05/13 03:41:32;;;;;;;6.57;5.78;;;22.30;80.50;;;;;;6309365;27;88294;-69
2023/05/13 03:44:34;;;;;;;6.10;5.50;;;22.30;81.30;;;;;;6268529;27;89187;-69
2023/05/13 03:47:37;;;;;;;6.30;5.70;;;22.30;80.40;;;;;;6266631;27;88996;-68
2023/05/13 03:50:40;;;;;;;6.18;5.57;;;22.20;80.30;;;;;;6294916;27;88931;-69
2023/05/13 03:53:43;;;;;;;6.10;5.50;;;22.20;80.30;;;;;;6266780;27;89063;-68
2023/05/13 03:56:45;;;;;;;6.93;6.22;;;22.20;80.20;;;;;;6294620;27;89479;-69
2023/05/13 03:59:47;;;;;;;6.50;5.90;;;22.30;80.30;;;;;;6290059;27;89027;-68
2023/05/13 04:02:49;;;;;;;6.18;5.47;;;22.30;80.30;;;;;;6270834;27;89075;-68
2023/05/13 04:05:52;;;;;;;6.47;5.68;;;22.40;80.30;;;;;;6284193;27;89096;-68
2023/05/13 04:08:55;;;;;;;6.03;5.53;;;22.30;80.30;;;;;;6257789;27;89166;-68
2023/05/13 04:11:57;;;;;;;6.25;5.53;;;22.40;80.30;;;;;;6274713;27;88449;-68
2023/05/13 04:14:59;;;;;;;5.63;5.13;;;22.40;80.20;;;;;;6292048;27;89646;-68
2023/05/13 04:18:01;;;;;;;5.63;5.13;;;22.40;80.20;;;;;;6282881;27;88846;-69
2023/05/13 04:21:06;;;;;;;5.93;5.32;;;22.40;80.10;;;;;;6286817;27;90018;-69
2023/05/13 04:24:10;;;;;;;5.68;5.18;;;22.40;80.10;;;;;;6298399;27;89006;-68
2023/05/13 04:27:12;;;;;;;5.45;4.95;;;22.40;80.00;;;;;;6267575;27;89009;-69
2023/05/13 04:30:14;;;;;;;5.95;5.35;;;22.40;80.00;;;;;;6269641;27;89221;-69
2023/05/13 04:33:16;;;;;;;5.75;5.25;;;22.40;80.00;;;;;;6278312;27;89063;-69
2023/05/13 04:36:18;;;;;;;5.47;4.97;;;22.50;80.00;;;;;;6301279;27;89026;-68
2023/05/13 04:39:22;;;;;;;5.70;5.10;;;22.50;80.00;;;;;;6286270;27;89038;-69
2023/05/13 04:42:24;;;;;;;5.13;4.63;;;22.40;79.90;;;;;;6285002;27;87560;-69
2023/05/13 04:45:26;;;;;;;5.45;4.95;;;22.40;79.90;;;;;;6279651;27;89204;-69
2023/05/13 04:48:28;;;;;;;5.35;4.85;;;22.40;79.90;;;;;;6278178;27;89521;-69
2023/05/13 04:51:31;;;;;;;5.43;4.93;;;22.40;79.90;;;;;;6266136;27;89982;-69
2023/05/13 04:54:34;;;;;;;5.40;4.90;;;22.40;79.90;;;;;;6278265;27;89278;-69
2023/05/13 04:57:37;;;;;;;5.00;4.60;;;22.50;80.00;;;;;;6303406;27;89148;-69
2023/05/13 05:00:38;;;;;;;5.85;4.85;;;22.40;80.00;;;;;;6292177;27;89194;-69
2023/05/13 05:03:40;;;;;;;5.55;5.05;;;22.40;80.00;;;;;;6293388;27;89074;-69
2023/05/13 05:06:42;;;;;;;5.68;5.18;;;22.40;80.00;;;;;;6276933;27;89006;-69
2023/05/13 05:09:46;;;;;;;5.22;4.72;;;22.40;80.00;;;;;;6279997;27;89064;-68
2023/05/13 05:12:48;;;;;;;5.13;4.63;;;22.40;80.00;;;;;;6281194;27;87484;-68
2023/05/13 05:15:50;;;;;;;5.07;4.60;;;22.40;80.00;;;;;;6282926;27;89287;-68
2023/05/13 05:18:52;;;;;;;5.38;4.70;;;22.30;80.00;;;;;;6290162;27;89263;-69
2023/05/13 05:21:54;;;;;;;5.28;4.78;;;22.30;80.00;;;;;;6274779;27;90050;-69
2023/05/13 05:24:57;;;;;;;4.80;4.40;;;22.30;80.00;;;;;;6282110;27;89137;-69
2023/05/13 05:27:59;;;;;;;4.70;4.30;;;22.40;80.10;;;;;;6284705;27;89072;-69
2023/05/13 05:31:01;;;;;;;4.65;4.25;;;22.30;80.10;;;;;;6300542;27;89105;-69
2023/05/13 05:34:03;;;;;;;4.78;4.25;;;22.30;80.10;;;;;;6290960;27;89063;-69
2023/05/13 05:37:05;;;;;;;5.43;4.50;;;22.30;80.10;;;;;;6284452;27;89011;-69
2023/05/13 05:40:10;;;;;;;5.07;4.47;;;22.30;80.10;;;;;;6271086;27;87918;-68
2023/05/13 05:43:12;;;;;;;4.53;4.13;;;22.30;80.10;;;;;;6281497;27;88510;-68
2023/05/13 05:46:14;;;;;;;4.50;4.10;;;22.30;80.00;;;;;;6279028;27;88759;-68
2023/05/13 05:49:16;;;;;;;4.40;4.00;;;22.30;80.00;;;;;;6259454;27;89254;-69
2023/05/13 05:52:18;;;;;;;4.75;4.35;;;22.30;80.00;;;;;;6255436;27;89958;-69
2023/05/13 05:55:21;;;;;;;4.85;4.35;;;22.30;80.00;;;;;;6274616;27;89091;-69
2023/05/13 05:58:25;;;;;;;5.57;4.22;;;22.30;80.00;;;;;;6277949;27;88073;-69
2023/05/13 06:01:32;;;;;;;4.60;4.15;;;22.30;80.00;;;;;;6284169;27;89411;-69
2023/05/13 06:04:34;;;;;;;4.82;4.35;;;22.30;80.00;;;;;;6287719;27;89394;-70
2023/05/13 06:07:36;;;;;;;4.75;4.25;;;22.40;80.00;;;;;;6279802;27;89072;-69
2023/05/13 06:10:39;;;;;;;4.43;4.03;;;22.40;80.00;;;;;;6259755;27;89301;-69
2023/05/13 06:13:42;;;;;;;3.60;3.30;;;22.40;80.00;;;;;;6278164;27;88366;-69
2023/05/13 06:16:44;;;;;;;4.28;3.88;;;22.40;80.00;;;;;;6270873;27;89211;-69
2023/05/13 06:19:46;;;;;;;4.65;3.80;;;22.40;80.00;;;;;;6290706;27;89107;-69
2023/05/13 06:22:48;;;;;;;4.07;3.67;;;22.50;79.90;;;;;;6289846;27;89992;-70
2023/05/13 06:25:52;;;;;;;4.18;3.78;;;22.50;79.90;;;;;;6286598;27;89175;-70
2023/05/13 06:28:54;;;;;;;4.10;3.70;;;22.50;79.80;;;;;;6290239;27;89076;-69
2023/05/13 06:31:56;;;;;;;4.18;3.78;;;22.50;79.80;;;;;;6290295;27;87928;-68
2023/05/13 06:34:58;;;;;;;4.38;3.88;;;22.50;79.80;;;;;;6282803;27;89152;-70
2023/05/13 06:38:00;;;;;;;3.88;3.47;;;22.50;79.70;;;;;;6288732;27;89188;-68
2023/05/13 06:41:03;;;;;;;3.60;3.30;;;22.60;79.80;;;;;;6272271;27;89722;-69
2023/05/13 06:44:05;;;;;;;4.68;3.63;;;22.60;79.80;;;;;;6275196;27;88699;-68
2023/05/13 06:47:13;;;;;;;3.70;3.40;;;22.60;79.70;;;;;;6274515;27;89088;-68
2023/05/13 06:50:15;;;;;;;4.55;3.85;;;22.60;79.80;;;;;;6272054;27;89276;-69
2023/05/13 06:53:17;;;;;;;4.13;3.40;;;22.60;79.80;;;;;;6275476;27;90043;-69
2023/05/13 06:56:21;;;;;;;4.50;3.95;;;22.60;79.80;;;;;;6261962;27;89549;-70
2023/05/13 06:59:23;;;;;;;7.38;5.90;;;22.60;80.00;;;;;;6265502;27;89165;-70
2023/05/13 07:02:25;;;;;;;4.22;3.83;;;22.60;82.10;;;;;;6270341;27;89153;-70
2023/05/13 07:05:27;;;;;;;3.95;3.53;;;22.70;82.20;;;;;;6259201;27;90566;-70
2023/05/13 07:08:29;;;;;;;3.70;3.40;;;22.80;82.80;;;;;;6268837;27;89117;-71
2023/05/13 07:11:33;;;;;;;4.47;3.80;;;22.80;81.30;;;;;;6276851;27;89393;-70
2023/05/13 07:14:34;;;;;;;4.07;3.65;;;22.90;81.90;;;;;;6271343;27;88425;-73
2023/05/13 07:17:36;;;;;;;3.65;3.30;;;23.00;80.80;;;;;;6264904;27;89092;-71
2023/05/13 07:20:38;;;;;;;4.72;4.00;;;23.00;80.10;;;;;;6269453;27;89071;-71
2023/05/13 07:23:40;;;;;;;3.85;3.45;;;23.00;79.70;;;;;;6273539;27;90103;-71
2023/05/13 07:26:44;;;;;;;3.72;3.42;;;23.00;79.50;;;;;;6263734;27;88703;-71
2023/05/13 07:29:46;;;;;;;5.57;3.50;;;23.00;79.30;;;;;;6275715;27;89067;-71
2023/05/13 07:32:48;;;;;;;3.97;3.42;;;23.00;79.30;;;;;;6278943;27;89408;-71
2023/05/13 07:35:50;;;;;;;3.75;3.30;;;23.00;79.40;;;;;;6293316;27;89140;-73
2023/05/13 07:38:52;;;;;;;4.53;3.40;;;23.00;79.40;;;;;;6288215;27;89128;-72
2023/05/13 07:41:55;;;;;;;4.22;3.42;;;23.00;79.40;;;;;;6300849;27;89955;-72
2023/05/13 07:44:58;;;;;;;3.35;3.05;;;22.90;79.50;;;;;;6286970;27;88391;-73
2023/05/13 07:47:59;;;;;;;3.47;3.05;;;22.90;79.60;;;;;;6274050;27;89209;-72
2023/05/13 07:51:01;;;;;;;3.25;2.95;;;22.90;79.60;;;;;;6269376;27;89031;-73
2023/05/13 07:54:04;;;;;;;3.38;3.08;;;22.90;79.50;;;;;;6277988;27;90034;-72
2023/05/13 07:57:07;;;;;;;3.60;3.00;;;22.90;79.40;;;;;;6284742;27;87989;-73
2023/05/13 08:00:10;;;;;;;3.75;2.92;;;22.90;79.40;;;;;;6267026;27;89141;-72
2023/05/13 08:03:12;;;;;;;3.08;2.80;;;22.90;79.40;;;;;;6270686;27;89060;-73
2023/05/13 08:06:14;;;;;;;3.08;2.78;;;22.90;79.40;;;;;;6280415;27;89550;-73
2023/05/13 08:09:16;;;;;;;3.35;3.00;;;22.90;79.40;;;;;;6289883;27;89211;-73
2023/05/13 08:12:19;;;;;;;3.25;2.70;;;22.90;79.40;;;;;;6284695;27;89159;-73
2023/05/13 08:15:21;;;;;;;3.08;2.78;;;22.90;79.40;;;;;;6287041;27;88377;-72
2023/05/13 08:18:23;;;;;;;3.10;2.80;;;22.90;79.40;;;;;;6281334;27;92010;-73
2023/05/13 08:21:25;;;;;;;2.88;2.60;;;22.90;79.30;;;;;;6273197;27;89371;-74
2023/05/13 08:24:27;;;;;;;3.33;2.88;;;22.90;79.40;;;;;;6289839;27;90023;-73
2023/05/13 08:27:30;;;;;;;2.72;2.53;;;22.90;79.40;;;;;;6274354;27;89038;-73
2023/05/13 08:30:32;;;;;;;3.08;2.75;;;22.90;79.30;;;;;;6275741;27;89098;-72
2023/05/13 08:33:34;;;;;;;4.40;3.05;;;22.90;79.20;;;;;;6271085;27;88994;-73
2023/05/13 08:36:36;;;;;;;3.00;2.70;;;22.90;79.30;;;;;;6294610;27;87872;-73
2023/05/13 08:39:38;;;;;;;2.72;2.50;;;22.90;79.30;;;;;;6272109;27;89001;-73
2023/05/13 08:42:43;;;;;;;2.97;2.35;;;22.90;79.30;;;;;;6278994;27;89546;-73
2023/05/13 08:45:47;;;;;;;3.05;2.55;;;22.90;79.30;;;;;;6273050;27;88190;-72
2023/05/13 08:48:49;;;;;;;3.15;2.65;;;23.00;79.40;;;;;;6266344;27;89113;-72
2023/05/13 08:51:51;;;;;;;3.15;2.75;;;22.90;79.30;;;;;;6258314;27;89078;-72
2023/05/13 08:54:54;;;;;;;3.60;2.70;;;22.90;79.30;;;;;;6267759;27;89998;-72
2023/05/13 08:57:57;;;;;;;2.60;2.35;;;22.90;79.30;;;;;;6272286;27;89214;-73
2023/05/13 09:00:59;;;;;;;2.83;2.53;;;23.00;79.40;;;;;;6276135;27;89032;-73
2023/05/13 09:04:04;;;;;;;2.47;2.22;;;23.00;79.40;;;;;;6269738;27;89109;-73
2023/05/13 09:07:06;;;;;;;4.22;2.45;;;23.00;79.40;;;;;;6287464;27;89227;-72
2023/05/13 09:10:10;;;;;;;2.30;2.10;;;23.00;79.40;;;;;;6276680;27;89121;-73
2023/05/13 09:13:14;;;;;;;2.35;2.15;;;23.00;79.40;;;;;;6275557;27;89079;-74
2023/05/13 09:16:16;;;;;;;3.15;2.47;;;23.00;79.40;;;;;;6279113;27;87217;-73
2023/05/13 09:19:19;;;;;;;2.50;2.25;;;23.00;79.30;;;;;;6288174;27;89187;-73
2023/05/13 09:22:21;;;;;;;3.38;2.38;;;23.00;79.40;;;;;;6280803;27;89094;-73
2023/05/13 09:25:24;;;;;;;3.60;2.63;;;23.00;79.50;;;;;;6280080;27;89971;-72
2023/05/13 09:28:27;;;;;;;3.65;2.30;;;23.00;79.50;;;;;;6267580;27;89043;-71
2023/05/13 09:31:33;;;;;;;2.90;2.25;;;23.00;79.50;;;;;;6269407;27;91136;-72
2023/05/13 09:34:35;;;;;;;2.88;2.20;;;23.00;79.50;;;;;;6272849;27;89390;-72
2023/05/13 09:37:37;;;;;;;3.25;2.15;;;23.00;79.40;;;;;;6273237;27;89077;-72
2023/05/13 09:40:39;;;;;;;3.70;2.30;;;23.00;79.60;;;;;;6279784;27;87956;-72
2023/05/13 09:43:43;;;;;;;2.72;2.33;;;23.00;79.60;;;;;;6279064;27;88977;-72
2023/05/13 09:46:45;;;;;;;3.00;2.33;;;23.00;79.60;;;;;;6267422;27;88441;-72
2023/05/13 09:49:56;;;;;;;4.03;2.33;;;23.00;79.50;;;;;;6279815;27;89273;-72
2023/05/13 09:52:58;;;;;;;3.55;2.45;;;23.00;79.60;;;;;;6299985;27;89431;-72
2023/05/13 09:56:00;;;;;;;2.40;2.20;;;23.00;79.60;;;;;;6281080;27;89999;-72
2023/05/13 09:59:04;;;;;;;2.65;2.22;;;23.00;79.60;;;;;;6280731;27;89069;-72
2023/05/13 10:02:07;;;;;;;3.50;2.00;;;23.00;79.60;;;;;;6269664;27;89238;-73
2023/05/13 10:05:10;;;;;;;2.10;1.90;;;23.00;79.60;;;;;;6261756;27;88911;-72
2023/05/13 10:08:13;;;;;;;2.05;1.85;;;23.00;79.60;;;;;;6262773;27;89020;-72
2023/05/13 10:11:16;;;;;;;2.58;2.22;;;23.00;79.60;;;;;;6271801;27;88265;-72
2023/05/13 10:14:20;;;;;;;2.35;2.00;;;23.00;79.60;;;;;;6279150;27;89098;-72
2023/05/13 10:17:24;;;;;;;2.67;2.00;;;23.00;79.60;;;;;;6272880;27;88734;-72
2023/05/13 10:20:26;;;;;;;2.33;1.98;;;23.00;79.50;;;;;;6283208;27;89094;-73
2023/05/13 10:23:29;;;;;;;2.35;1.90;;;23.00;79.50;;;;;;6284415;27;88996;-72
2023/05/13 10:26:32;;;;;;;2.35;2.00;;;23.00;79.50;;;;;;6288938;27;90157;-72
2023/05/13 10:29:39;;;;;;;2.15;1.95;;;23.00;79.60;;;;;;6280667;27;89230;-71
2023/05/13 10:32:41;;;;;;;1.95;1.75;;;23.00;79.60;;;;;;6285178;27;89419;-72
2023/05/13 10:35:50;;;;;;;2.78;1.85;;;23.00;79.50;;;;;;6283296;27;89064;-72
2023/05/13 10:39:15;;;;;;;2.03;1.80;;;23.00;79.50;;;;;;6266350;27;88639;-72
2023/05/13 10:42:39;;;;;;;1.95;1.70;;;23.00;79.60;;;;;;6279169;27;89023;-73
2023/05/13 10:45:45;;;;;;;1.70;1.60;;;23.00;79.60;;;;;;6272636;27;89137;-72
2023/05/13 10:48:48;;;;;;;1.98;1.80;;;23.00;79.60;;;;;;6273667;27;88682;-73
2023/05/13 10:51:51;;;;;;;2.67;2.03;;;23.00;79.60;;;;;;6265736;27;89311;-74
2023/05/13 10:55:01;;;;;;;2.55;1.92;;;23.00;79.60;;;;;;6269938;27;89189;-73
2023/05/13 10:58:13;;;;;;;2.92;1.85;;;23.00;79.80;;;;;;6274518;27;90033;-74
2023/05/13 11:01:19;;;;;;;2.72;2.10;;;23.00;80.30;;;;;;6270963;27;89270;-74
2023/05/13 11:04:21;;;;;;;2.28;1.75;;;23.00;80.60;;;;;;6264063;27;89103;-74
2023/05/13 11:07:23;;;;;;;2.05;1.88;;;23.10;81.00;;;;;;6280071;27;89224;-73
2023/05/13 11:10:28;;;;;;;2.42;1.92;;;23.10;81.10;;;;;;6282633;27;89003;-74
2023/05/13 11:13:37;;;;;;;2.63;1.95;;;23.10;81.30;;;;;;6267827;27;88981;-73
2023/05/13 11:16:46;;;;;;;2.03;1.83;;;23.10;81.60;;;;;;6264873;27;89221;-71
2023/05/13 11:19:50;;;;;;;2.80;1.90;;;23.10;81.60;;;;;;6272664;27;88640;-72
2023/05/13 11:22:52;;;;;;;2.58;1.60;;;23.10;81.70;;;;;;6270438;27;89114;-72
2023/05/13 11:26:10;;;;;;;1.70;1.60;;;23.10;82.00;;;;;;6263895;27;89026;-71
2023/05/13 11:29:12;;;;;;;2.53;1.77;;;23.10;82.00;;;;;;6280512;27;90093;-72
2023/05/13 11:32:16;;;;;;;2.47;1.90;;;23.10;82.90;;;;;;6258971;27;88360;-73
2023/05/13 11:35:20;;;;;;;3.25;2.28;;;23.10;82.30;;;;;;6280968;27;89073;-73
2023/05/13 11:38:25;;;;;;;2.40;1.80;;;23.10;82.00;;;;;;6272021;27;89167;-71
2023/05/13 11:41:31;;;;;;;2.28;1.52;;;23.10;81.80;;;;;;6260275;27;88466;-73
2023/05/13 11:44:35;;;;;;;2.08;1.88;;;23.10;81.60;;;;;;6291456;27;89104;-73
2023/05/13 11:47:38;;;;;;;3.10;2.08;;;23.10;81.60;;;;;;6276122;27;88338;-72
2023/05/13 11:50:40;;;;;;;3.58;2.03;;;23.10;81.60;;;;;;6257522;27;88666;-72
2023/05/13 11:53:42;;;;;;;5.47;2.55;;;23.10;81.60;;;;;;6264745;27;89025;-72
2023/05/13 11:56:44;;;;;;;6.68;2.47;;;23.20;81.90;;;;;;6266406;27;88345;-72
2023/05/13 11:59:50;;;;;;;6.03;2.92;;;23.10;81.90;;;;;;6259933;27;90101;-72
2023/05/13 12:02:54;;;;;;;9.85;3.20;;;23.10;82.00;;;;;;6286383;27;88052;-73
2023/05/13 12:06:01;;;;;;;10.32;3.30;;;23.10;82.30;;;;;;6269983;27;89079;-73
2023/05/13 12:09:07;;;;;;;13.02;3.72;;;23.10;82.80;;;;;;6303702;27;87986;-72
2023/05/13 12:12:10;;;;;;;14.15;4.53;;;23.10;83.20;;;;;;6275475;27;89163;-71
2023/05/13 12:15:14;;;;;;;15.23;3.88;;;23.10;84.30;;;;;;6274435;27;89047;-72
2023/05/13 12:18:17;;;;;;;15.00;4.30;;;23.20;84.70;;;;;;6263561;27;88989;-73
2023/05/13 12:21:21;;;;;;;21.73;4.88;;;23.10;86.30;;;;;;6261860;27;88346;-73
2023/05/13 12:24:23;;;;;;;18.90;5.32;;;23.10;85.80;;;;;;6261839;27;89096;-73
2023/05/13 12:27:25;;;;;;;18.92;6.07;;;23.20;86.30;;;;;;6269192;27;89262;-73
2023/05/13 12:30:34;;;;;;;20.52;5.93;;;23.10;86.70;;;;;;6278225;27;90054;-72
2023/05/13 12:33:45;;;;;;;21.35;6.72;;;23.10;87.40;;;;;;6257253;27;89169;-73
2023/05/13 12:36:47;;;;;;;18.00;5.10;;;23.20;88.90;;;;;;6282998;27;89270;-70
2023/05/13 12:39:49;;;;;;;17.23;5.68;;;23.20;87.80;;;;;;6274532;27;88298;-72
2023/05/13 12:42:51;;;;;;;13.43;5.07;;;23.20;89.60;;;;;;6276535;27;89061;-73
2023/05/13 12:45:55;;;;;;;16.55;5.15;;;23.20;88.50;;;;;;6276257;27;89152;-72
2023/05/13 12:49:00;;;;;;;15.60;4.68;;;23.20;89.00;;;;;;6282317;27;88001;-73
2023/05/13 12:52:03;;;;;;;13.40;4.30;;;23.20;87.60;;;;;;6265890;27;88288;-73
2023/05/13 12:55:06;;;;;;;16.10;4.75;;;23.30;87.10;;;;;;6282120;27;89107;-72
2023/05/13 12:58:12;;;;;;;15.18;4.70;;;23.30;86.90;;;;;;6271516;27;88985;-72
2023/05/13 13:01:13;;;;;;;14.38;4.55;;;23.30;86.60;;;;;;6268554;27;89918;-72
2023/05/13 13:04:17;;;;;;;13.30;4.00;;;23.30;86.40;;;;;;6261213;27;89191;-72
2023/05/13 13:07:19;;;;;;;11.63;4.13;;;23.30;86.20;;;;;;6280483;27;89503;-71
2023/05/13 13:10:21;;;;;;;10.35;4.20;;;23.30;85.90;;;;;;6285985;27;89467;-72
2023/05/13 13:13:23;;;;;;;11.75;3.90;;;23.30;85.90;;;;;;6278617;27;89108;-72
2023/05/13 13:16:25;;;;;;;13.98;5.20;;;23.30;85.70;;;;;;6279088;27;89004;-70
2023/05/13 13:19:29;;;;;;;11.68;3.95;;;23.30;92.90;;;;;;6278185;27;89380;-70
2023/05/13 13:22:32;;;;;;;14.23;3.92;;;23.40;92.30;;;;;;6266898;27;88346;-70
2023/05/13 13:25:35;;;;;;;9.50;4.10;;;23.40;91.00;;;;;;6270683;27;89062;-70
2023/05/13 13:28:37;;;;;;;13.73;4.88;;;23.50;90.30;;;;;;6261548;27;89341;-71
2023/05/13 13:31:39;;;;;;;11.80;4.40;;;23.50;89.80;;;;;;6258946;27;90105;-70
2023/05/13 13:34:42;;;;;;;9.23;4.20;;;23.50;89.10;;;;;;6268468;27;89082;-71
2023/05/13 13:37:44;;;;;;;11.90;4.47;;;23.60;88.50;;;;;;6262784;27;89012;-72
2023/05/13 13:40:46;;;;;;;11.32;4.32;;;23.50;88.10;;;;;;6269235;27;89101;-71
2023/05/13 13:43:48;;;;;;;12.23;4.70;;;23.50;87.70;;;;;;6263008;27;89099;-70
2023/05/13 13:46:50;;;;;;;11.55;4.18;;;23.50;87.50;;;;;;6261812;27;89140;-70
2023/05/13 13:49:53;;;;;;;13.48;4.47;;;23.50;87.30;;;;;;6264281;27;88186;-69
2023/05/13 13:52:55;;;;;;;11.07;4.40;;;23.40;87.10;;;;;;6272311;27;88468;-70
2023/05/13 13:55:57;;;;;;;11.93;4.78;;;23.40;87.00;;;;;;6271221;27;87882;-70
2023/05/13 13:58:59;;;;;;;10.98;4.47;;;23.50;86.90;;;;;;6279828;27;89089;-71
2023/05/13 14:02:01;;;;;;;14.02;4.85;;;23.50;86.50;;;;;;6276712;27;89999;-70
2023/05/13 14:05:05;;;;;;;10.82;4.43;;;23.40;86.10;;;;;;6270603;27;89174;-71
2023/05/13 14:08:07;;;;;;;13.65;4.80;;;23.40;86.20;;;;;;6263402;27;89103;-71
2023/05/13 14:11:09;;;;;;;9.25;4.55;;;23.40;86.20;;;;;;6272138;27;89046;-71
2023/05/13 14:14:11;;;;;;;13.30;4.40;;;23.40;86.40;;;;;;6289887;27;89066;-71
2023/05/13 14:17:13;;;;;;;10.05;4.07;;;23.40;86.50;;;;;;6286544;27;88973;-71
2023/05/13 14:20:17;;;;;;;13.50;4.82;;;23.40;86.40;;;;;;6280599;27;89077;-72
2023/05/13 14:23:19;;;;;;;12.27;4.82;;;23.30;86.60;;;;;;6268067;27;88527;-72
2023/05/13 14:26:21;;;;;;;11.85;4.80;;;23.40;86.60;;;;;;6278769;27;89420;-71
2023/05/13 14:29:23;;;;;;;15.20;4.80;;;23.40;86.40;;;;;;6270261;27;88911;-70
2023/05/13 14:32:25;;;;;;;11.60;4.28;;;23.40;86.20;;;;;;6278044;27;91371;-71
2023/05/13 14:35:28;;;;;;;13.82;5.10;;;23.30;86.10;;;;;;6285842;27;87998;-71
2023/05/13 14:38:31;;;;;;;12.65;4.78;;;23.40;86.10;;;;;;6270447;27;89044;-71
2023/05/13 14:41:33;;;;;;;11.73;4.38;;;23.40;86.10;;;;;;6272882;27;90234;-71
2023/05/13 14:44:35;;;;;;;10.73;4.65;;;23.40;86.10;;;;;;6295761;27;87933;-70
2023/05/13 14:47:37;;;;;;;10.88;4.65;;;23.40;86.00;;;;;;6284426;27;87995;-71
2023/05/13 14:50:40;;;;;;;11.80;5.00;;;23.30;85.90;;;;;;6276205;27;89991;-71
2023/05/13 14:53:43;;;;;;;10.52;4.63;;;23.30;85.70;;;;;;6266665;27;89527;-71
2023/05/13 14:56:45;;;;;;;9.77;4.32;;;23.40;85.70;;;;;;6266559;27;88347;-71
2023/05/13 14:59:47;;;;;;;10.20;4.50;;;23.30;85.60;;;;;;6259956;27;89397;-68
2023/05/13 15:02:49;;;;;;;11.55;4.85;;;23.30;85.50;;;;;;6262659;27;89472;-69
2023/05/13 15:05:53;;;;;;;10.55;4.70;;;23.30;85.40;;;;;;6282719;27;89544;-69
2023/05/13 15:08:56;;;;;;;10.82;4.38;;;23.40;85.40;;;;;;6260539;27;89271;-69
2023/05/13 15:11:58;;;;;;;12.63;4.90;;;23.30;85.20;;;;;;6281819;27;89257;-70
2023/05/13 15:15:00;;;;;;;7.53;4.25;;;23.30;85.20;;;;;;6280280;27;89189;-69
2023/05/13 15:18:02;;;;;;;9.85;4.30;;;23.30;85.20;;;;;;6276895;27;89136;-70
2023/05/13 15:21:05;;;;;;;10.85;4.75;;;23.30;85.00;;;;;;6289147;27;89116;-71
2023/05/13 15:24:07;;;;;;;8.95;4.45;;;23.30;85.00;;;;;;6308760;27;88327;-69
2023/05/13 15:27:10;;;;;;;13.55;4.95;;;23.30;84.90;;;;;;6274032;27;89622;-69
2023/05/13 15:30:12;;;;;;;10.57;4.20;;;23.30;84.80;;;;;;6259047;27;89041;-69
2023/05/13 15:33:14;;;;;;;9.30;4.45;;;23.30;84.70;;;;;;6259299;27;90243;-69
2023/05/13 15:36:17;;;;;;;11.07;4.88;;;23.30;84.70;;;;;;6295304;27;89403;-69
2023/05/13 15:39:20;;;;;;;10.90;4.95;;;23.30;84.70;;;;;;6282853;27;89611;-69
2023/05/13 15:42:21;;;;;;;9.13;4.63;;;23.30;84.70;;;;;;6282971;27;87933;-68
2023/05/13 15:45:23;;;;;;;11.82;5.05;;;23.30;84.50;;;;;;6277470;27;89166;-69
2023/05/13 15:48:26;;;;;;;13.88;5.75;;;23.30;84.50;;;;;;6288634;27;89431;-69
2023/05/13 15:51:30;;;;;;;14.80;5.90;;;23.30;84.50;;;;;;6281965;27;90099;-69